Time;durP1;ratioP1;P1;durP2;ratioP2;P2;SDS_P1;SDS_P2;PMS_P1;PMS_P2;Temp;Humidity;BMP_temperature;BMP_pressure;BME280_temperature;BME280_humidity;BME280_pressure;Samples;Min_cycle;Max_cycle;Signal;HPM_P1;HPM_P2
2022/09/14 00:01:20;;;;;;;4.13;1.50;;;15.80;99.90;;;;;;5071536;28;20511;-47
2022/09/14 00:03:58;;;;;;;2.28;1.45;;;15.90;99.90;;;;;;5046813;28;20045;-47
2022/09/14 00:06:25;;;;;;;3.35;1.60;;;15.90;99.90;;;;;;5052218;28;20068;-48
2022/09/14 00:08:54;;;;;;;2.72;1.80;;;15.90;99.90;;;;;;5052767;28;20131;-47
2022/09/14 00:11:23;;;;;;;4.25;1.30;;;16.00;99.90;;;;;;5053916;28;20071;-46
2022/09/14 00:13:50;;;;;;;5.10;1.30;;;16.00;99.90;;;;;;5057697;28;20123;-46
2022/09/14 00:16:23;;;;;;;2.78;1.42;;;16.00;99.90;;;;;;5046039;28;20461;-47
2022/09/14 00:18:52;;;;;;;2.80;1.48;;;16.10;99.90;;;;;;5052533;28;20083;-46
2022/09/14 00:21:20;;;;;;;1.88;1.60;;;16.10;99.90;;;;;;5051654;28;20076;-46
2022/09/14 00:23:46;;;;;;;;;;;16.10;99.90;;;;;;5052719;28;20083;-48
2022/09/14 00:26:16;;;;;;;4.50;1.70;;;16.10;99.90;;;;;;5043761;28;19986;-47
2022/09/14 00:28:45;;;;;;;3.42;1.80;;;16.10;99.90;;;;;;5047145;28;20060;-47
2022/09/14 00:31:12;;;;;;;5.50;1.50;;;16.00;99.90;;;;;;5052301;28;20041;-48
2022/09/14 00:33:46;;;;;;;2.10;1.20;;;15.90;99.90;;;;;;5052149;28;20048;-46
2022/09/14 00:36:19;;;;;;;2.92;1.50;;;15.80;99.90;;;;;;5051405;28;20048;-47
2022/09/14 00:38:47;;;;;;;5.90;2.00;;;15.70;99.90;;;;;;5053393;28;20048;-48
2022/09/14 00:41:20;;;;;;;3.13;1.60;;;15.60;99.90;;;;;;5034362;28;20103;-47
2022/09/14 00:44:00;;;;;;;3.25;2.17;;;15.50;99.90;;;;;;5047512;28;20751;-46
2022/09/14 00:46:37;;;;;;;4.03;2.00;;;15.40;99.90;;;;;;5071183;28;20052;-48
2022/09/14 00:49:15;;;;;;;2.03;1.40;;;15.40;99.90;;;;;;5070923;28;20131;-46
2022/09/14 00:51:48;;;;;;;2.55;1.50;;;15.30;99.90;;;;;;5072380;28;20151;-46
2022/09/14 00:54:15;;;;;;;6.32;1.65;;;15.30;99.90;;;;;;5053409;28;20440;-46
2022/09/14 00:56:41;;;;;;;2.58;1.20;;;15.30;99.90;;;;;;5046693;28;20124;-46
2022/09/14 00:59:15;;;;;;;2.47;1.13;;;15.40;99.90;;;;;;5050772;28;20068;-46
2022/09/14 01:01:43;;;;;;;2.90;1.17;;;15.40;99.90;;;;;;5052251;28;20049;-46
2022/09/14 01:04:10;;;;;;;2.15;1.20;;;15.40;99.90;;;;;;5045075;28;20490;-47
2022/09/14 01:06:55;;;;;;;1.80;0.98;;;15.40;99.90;;;;;;5051724;28;20080;-48
2022/09/14 01:09:29;;;;;;;2.15;0.90;;;15.50;99.90;;;;;;5051665;28;20076;-47
2022/09/14 01:12:25;;;;;;;5.10;1.50;;;15.50;99.90;;;;;;5042117;28;20037;-46
2022/09/14 01:15:04;;;;;;;2.08;1.55;;;15.50;99.90;;;;;;5051374;28;20108;-47
2022/09/14 01:17:44;;;;;;;3.25;1.40;;;15.40;99.90;;;;;;5051614;28;20072;-46
2022/09/14 01:20:18;;;;;;;2.70;1.20;;;15.40;99.90;;;;;;5049903;28;20401;-46
2022/09/14 01:23:07;;;;;;;5.10;1.55;;;15.40;99.90;;;;;;5045281;28;20040;-46
2022/09/14 01:26:03;;;;;;;;;;;15.30;99.90;;;;;;5050170;28;20567;-47
2022/09/14 01:28:35;;;;;;;4.22;1.65;;;15.40;99.90;;;;;;5059685;28;19968;-46
2022/09/14 01:31:08;;;;;;;4.63;1.60;;;15.30;99.90;;;;;;5069166;28;20083;-48
2022/09/14 01:33:40;;;;;;;3.70;1.55;;;15.30;99.90;;;;;;5067595;28;20147;-47
2022/09/14 01:36:10;;;;;;;8.15;1.60;;;15.20;99.90;;;;;;5043284;28;20072;-46
2022/09/14 01:38:41;;;;;;;5.95;2.00;;;15.20;99.90;;;;;;5051119;28;20045;-46
2022/09/14 01:41:11;;;;;;;1.40;1.30;;;15.10;99.90;;;;;;5049636;28;20123;-46
2022/09/14 01:43:39;;;;;;;3.40;1.20;;;15.00;99.90;;;;;;5070453;28;20086;-48
2022/09/14 01:46:11;;;;;;;7.07;1.50;;;15.10;99.90;;;;;;5070857;28;20119;-47
2022/09/14 01:48:48;;;;;;;3.50;1.30;;;15.10;99.90;;;;;;5063035;28;20106;-47
2022/09/14 01:51:21;;;;;;;2.28;1.15;;;15.10;99.90;;;;;;5066856;28;20060;-46
2022/09/14 01:53:54;;;;;;;5.38;1.25;;;15.10;99.90;;;;;;5066689;28;20095;-47
2022/09/14 01:56:31;;;;;;;5.57;1.20;;;15.10;99.90;;;;;;5051093;28;20080;-47
2022/09/14 01:59:08;;;;;;;0.88;0.88;;;15.10;99.90;;;;;;5050821;28;20128;-46
2022/09/14 02:02:00;;;;;;;2.83;0.90;;;15.10;99.90;;;;;;5049343;28;20458;-47
2022/09/14 02:04:35;;;;;;;5.38;1.20;;;15.10;99.90;;;;;;5038917;28;20287;-46
2022/09/14 02:07:02;;;;;;;2.33;1.20;;;15.10;99.90;;;;;;5051103;28;20470;-46
2022/09/14 02:09:29;;;;;;;2.15;1.15;;;15.00;99.90;;;;;;5081869;22;20048;-44
2022/09/14 02:11:59;;;;;;;1.38;1.05;;;15.00;99.90;;;;;;5088911;28;20052;-44
2022/09/14 02:14:27;;;;;;;2.00;1.10;;;15.10;99.90;;;;;;5082167;28;20047;-46
2022/09/14 02:16:54;;;;;;;2.70;1.17;;;15.10;99.90;;;;;;5083533;28;20156;-43
2022/09/14 02:19:21;;;;;;;1.35;0.90;;;15.10;99.90;;;;;;5060605;28;20057;-44
2022/09/14 02:21:50;;;;;;;5.53;1.17;;;15.10;99.90;;;;;;5050069;28;20485;-45
2022/09/14 02:24:17;;;;;;;1.13;0.95;;;15.10;99.90;;;;;;5052424;28;20049;-45
2022/09/14 02:26:46;;;;;;;6.82;1.20;;;15.10;99.90;;;;;;5061797;28;20127;-44
2022/09/14 02:29:12;;;;;;;5.82;1.13;;;15.10;99.90;;;;;;5052967;28;20068;-45
2022/09/14 02:31:43;;;;;;;1.67;1.10;;;15.10;99.90;;;;;;5050150;28;20041;-47
2022/09/14 02:34:39;;;;;;;1.83;1.10;;;15.20;99.90;;;;;;5050506;28;20076;-48
2022/09/14 02:37:12;;;;;;;1.55;1.15;;;15.10;99.90;;;;;;5050083;28;20559;-45
2022/09/14 02:40:02;;;;;;;3.90;1.35;;;15.20;99.90;;;;;;5050654;28;20049;-50
2022/09/14 02:42:33;;;;;;;2.80;1.50;;;15.20;99.90;;;;;;5057846;28;20040;-46
2022/09/14 02:45:12;;;;;;;6.40;1.40;;;15.20;99.90;;;;;;5050645;28;20037;-44
2022/09/14 02:47:39;;;;;;;3.72;1.70;;;15.10;99.90;;;;;;5063169;28;20048;-44
2022/09/14 02:50:22;;;;;;;3.08;1.48;;;15.10;99.90;;;;;;5073519;28;20048;-45
2022/09/14 02:53:13;;;;;;;2.75;1.20;;;15.10;99.90;;;;;;5073795;28;20040;-44
2022/09/14 02:55:47;;;;;;;2.92;1.30;;;15.10;99.90;;;;;;5054100;28;20071;-44
2022/09/14 02:58:14;;;;;;;5.25;1.30;;;15.10;99.90;;;;;;5053724;28;20080;-43
2022/09/14 03:00:44;;;;;;;6.68;1.27;;;15.20;99.90;;;;;;5058758;28;20127;-44
2022/09/14 03:03:13;;;;;;;3.97;2.10;;;15.20;99.90;;;;;;5054420;28;20032;-44
2022/09/14 03:05:40;;;;;;;5.22;1.77;;;15.20;99.90;;;;;;5053211;28;20052;-43
2022/09/14 03:08:09;;;;;;;4.28;1.85;;;15.10;99.90;;;;;;5054709;28;20053;-44
2022/09/14 03:10:36;;;;;;;7.28;1.50;;;15.10;99.90;;;;;;5062550;28;20098;-45
2022/09/14 03:13:03;;;;;;;;;;;15.10;99.90;;;;;;5058487;28;20121;-45
2022/09/14 03:15:30;;;;;;;1.65;1.27;;;15.10;99.90;;;;;;5055833;28;20422;-44
2022/09/14 03:17:57;;;;;;;2.38;1.60;;;15.00;99.90;;;;;;5074105;28;20064;-46
2022/09/14 03:20:26;;;;;;;5.30;2.00;;;15.00;99.90;;;;;;5073257;28;20070;-44
2022/09/14 03:22:53;;;;;;;3.35;1.35;;;15.00;99.90;;;;;;5056753;28;20061;-44
2022/09/14 03:25:21;;;;;;;;;;;15.00;99.90;;;;;;5064246;28;20041;-44
2022/09/14 03:27:58;;;;;;;2.30;1.60;;;15.00;99.90;;;;;;5069873;28;19920;-44
2022/09/14 03:30:26;;;;;;;2.05;1.65;;;15.00;99.90;;;;;;5065733;28;20107;-49
2022/09/14 03:32:53;;;;;;;10.35;1.60;;;15.10;99.90;;;;;;5065076;28;20056;-49
2022/09/14 03:35:20;;;;;;;2.30;1.60;;;15.10;99.90;;;;;;5061215;28;20059;-46
2022/09/14 03:37:47;;;;;;;3.95;1.60;;;15.10;99.90;;;;;;5065775;28;20037;-46
2022/09/14 03:40:15;;;;;;;4.18;1.67;;;15.00;99.90;;;;;;5060394;28;20044;-47
2022/09/14 03:42:49;;;;;;;3.28;1.40;;;15.00;99.90;;;;;;5063266;28;20044;-46
2022/09/14 03:45:17;;;;;;;1.83;1.35;;;14.90;99.90;;;;;;5057501;28;20040;-46
2022/09/14 03:47:46;;;;;;;1.88;1.35;;;15.00;99.90;;;;;;5054235;28;20505;-47
2022/09/14 03:50:14;;;;;;;3.40;1.15;;;15.00;99.90;;;;;;5060655;28;20041;-48
2022/09/14 03:52:41;;;;;;;4.28;1.25;;;14.90;99.90;;;;;;5070388;28;20040;-46
2022/09/14 03:55:09;;;;;;;3.22;1.30;;;15.00;99.90;;;;;;5069575;28;20410;-46
2022/09/14 03:57:37;;;;;;;3.63;1.27;;;15.00;99.90;;;;;;5063048;28;20040;-48
2022/09/14 04:00:06;;;;;;;6.03;1.50;;;15.00;99.90;;;;;;5070837;28;20044;-46
2022/09/14 04:02:37;;;;;;;4.90;1.85;;;15.10;99.90;;;;;;5063610;28;20055;-47
2022/09/14 04:05:04;;;;;;;4.70;1.75;;;15.10;99.90;;;;;;5063438;28;20063;-44
2022/09/14 04:07:31;;;;;;;;;;;15.10;99.90;;;;;;5070213;28;20071;-44
2022/09/14 04:09:58;;;;;;;3.17;1.83;;;15.10;99.90;;;;;;5071977;28;19959;-46
2022/09/14 04:12:25;;;;;;;7.80;1.70;;;15.10;99.90;;;;;;5060019;28;20049;-46
2022/09/14 04:14:52;;;;;;;2.58;1.80;;;15.20;99.90;;;;;;5052370;28;20571;-45
2022/09/14 04:17:18;;;;;;;3.13;1.45;;;15.20;99.90;;;;;;5058863;28;20099;-49
2022/09/14 04:19:45;;;;;;;5.45;2.15;;;15.20;99.90;;;;;;5055126;28;20528;-46
2022/09/14 04:22:12;;;;;;;7.28;2.30;;;15.20;99.90;;;;;;5052332;28;20049;-46
2022/09/14 04:24:39;;;;;;;5.32;1.75;;;15.20;99.90;;;;;;5042032;28;20059;-45
2022/09/14 04:27:06;;;;;;;5.63;1.70;;;15.20;99.90;;;;;;5061607;28;20052;-46
2022/09/14 04:29:33;;;;;;;3.20;1.70;;;15.10;99.90;;;;;;5056240;28;20045;-49
2022/09/14 04:31:59;;;;;;;2.08;1.58;;;15.10;99.90;;;;;;5071952;28;20052;-49
2022/09/14 04:34:26;;;;;;;3.42;2.58;;;14.90;99.90;;;;;;5072367;28;20051;-49
2022/09/14 04:36:53;;;;;;;3.95;2.20;;;14.90;99.90;;;;;;5058190;28;20153;-44
2022/09/14 04:39:20;;;;;;;5.22;2.08;;;14.90;99.90;;;;;;5065697;28;20489;-46
2022/09/14 04:41:47;;;;;;;4.35;2.10;;;14.90;99.90;;;;;;5064081;28;20111;-45
2022/09/14 04:44:14;;;;;;;4.78;2.05;;;14.90;99.90;;;;;;5064050;28;20064;-48
2022/09/14 04:46:41;;;;;;;6.90;1.92;;;14.90;99.90;;;;;;5063588;28;20052;-46
2022/09/14 04:49:14;;;;;;;4.53;2.00;;;14.90;99.90;;;;;;5059864;28;20079;-46
2022/09/14 04:51:41;;;;;;;5.30;1.85;;;15.00;99.90;;;;;;5062411;28;20028;-45
2022/09/14 04:54:11;;;;;;;8.85;2.15;;;15.00;99.90;;;;;;5067905;28;20068;-46
2022/09/14 04:56:38;;;;;;;3.75;1.63;;;15.00;99.90;;;;;;5065303;28;20044;-47
2022/09/14 04:59:06;;;;;;;3.03;2.28;;;15.00;99.90;;;;;;5063121;28;20438;-46
2022/09/14 05:01:38;;;;;;;4.60;2.22;;;15.10;99.90;;;;;;5064164;28;20070;-45
2022/09/14 05:04:07;;;;;;;6.20;1.90;;;15.10;99.90;;;;;;5067337;28;20060;-47
2022/09/14 05:06:37;;;;;;;3.88;1.63;;;15.20;99.90;;;;;;5064208;28;20149;-46
2022/09/14 05:09:06;;;;;;;2.83;2.33;;;15.30;99.90;;;;;;5064251;28;20037;-45
2022/09/14 05:11:35;;;;;;;2.35;1.70;;;15.30;99.90;;;;;;5049630;28;20548;-45
2022/09/14 05:14:02;;;;;;;1.63;1.40;;;15.30;99.90;;;;;;5051534;28;20095;-46
2022/09/14 05:16:31;;;;;;;4.22;1.98;;;15.30;99.90;;;;;;5055188;28;20045;-46
2022/09/14 05:19:01;;;;;;;1.48;1.30;;;15.40;99.90;;;;;;5051638;28;20041;-46
2022/09/14 05:21:29;;;;;;;5.45;1.65;;;15.40;99.90;;;;;;5055692;28;20051;-45
2022/09/14 05:24:03;;;;;;;4.07;1.23;;;15.40;99.90;;;;;;5061965;28;20086;-46
2022/09/14 05:26:31;;;;;;;4.15;1.50;;;15.40;99.90;;;;;;5050149;28;20045;-44
2022/09/14 05:29:00;;;;;;;2.80;1.50;;;15.40;99.90;;;;;;5054333;28;20045;-45
2022/09/14 05:31:28;;;;;;;2.92;1.30;;;15.50;99.90;;;;;;5057212;28;20045;-47
2022/09/14 05:33:55;;;;;;;5.07;1.63;;;15.50;99.90;;;;;;5049462;28;20051;-47
2022/09/14 05:36:23;;;;;;;2.25;1.52;;;15.50;99.90;;;;;;5050824;28;20049;-46
2022/09/14 05:38:50;;;;;;;;;;;15.60;99.90;;;;;;5047732;28;20048;-45
2022/09/14 05:41:17;;;;;;;1.48;1.02;;;15.50;99.90;;;;;;5070838;28;19927;-45
2022/09/14 05:43:44;;;;;;;3.60;1.27;;;15.50;99.90;;;;;;5069518;28;20508;-46
2022/09/14 05:46:13;;;;;;;3.47;1.20;;;15.50;99.90;;;;;;5052897;28;20083;-46
2022/09/14 05:48:40;;;;;;;3.92;1.48;;;15.50;99.90;;;;;;5054607;28;20044;-46
2022/09/14 05:51:12;;;;;;;2.25;1.50;;;15.50;99.90;;;;;;5049014;28;20527;-45
2022/09/14 05:53:39;;;;;;;2.97;1.33;;;15.60;99.90;;;;;;5048834;28;20124;-45
2022/09/14 05:56:11;;;;;;;2.15;1.27;;;15.70;99.90;;;;;;5051231;28;20120;-46
2022/09/14 05:58:39;;;;;;;4.55;1.25;;;15.70;99.90;;;;;;5064371;28;20064;-45
2022/09/14 06:01:08;;;;;;;4.55;1.25;;;15.80;99.90;;;;;;5058498;28;20076;-45
2022/09/14 06:03:36;;;;;;;7.40;1.67;;;15.80;99.90;;;;;;5063209;28;20072;-45
2022/09/14 06:06:04;;;;;;;10.55;1.67;;;15.90;99.90;;;;;;5070639;28;20139;-45
2022/09/14 06:08:32;;;;;;;11.55;1.67;;;15.80;99.90;;;;;;5069961;28;20098;-45
2022/09/14 06:11:05;;;;;;;;;;;15.80;99.90;;;;;;5063188;28;20063;-45
2022/09/14 06:13:32;;;;;;;3.72;2.83;;;15.70;99.90;;;;;;5065165;28;20023;-45
2022/09/14 06:16:11;;;;;;;10.13;1.70;;;15.70;99.90;;;;;;5070892;28;20471;-45
2022/09/14 06:18:39;;;;;;;4.05;1.83;;;15.70;99.90;;;;;;5062268;28;20128;-45
2022/09/14 06:21:07;;;;;;;3.25;1.73;;;15.80;99.90;;;;;;5050777;28;20072;-45
2022/09/14 06:23:34;;;;;;;2.15;1.67;;;15.80;99.90;;;;;;5050838;28;20226;-45
2022/09/14 06:26:03;;;;;;;5.60;1.95;;;15.90;99.90;;;;;;5055055;28;20131;-45
2022/09/14 06:28:31;;;;;;;3.78;2.05;;;15.90;99.90;;;;;;5047534;28;20082;-45
2022/09/14 06:31:24;;;;;;;7.00;1.92;;;16.00;99.90;;;;;;5072362;28;20075;-46
2022/09/14 06:33:51;;;;;;;6.78;2.30;;;16.00;99.90;;;;;;5060717;28;20052;-45
2022/09/14 06:36:21;;;;;;;3.30;2.22;;;16.10;99.90;;;;;;5053104;28;20068;-45
2022/09/14 06:38:48;;;;;;;9.57;2.78;;;16.10;99.90;;;;;;5054457;28;20065;-45
2022/09/14 06:41:19;;;;;;;3.53;2.08;;;16.20;99.90;;;;;;5060477;28;20112;-45
2022/09/14 06:43:46;;;;;;;5.20;2.33;;;16.20;99.90;;;;;;5054738;28;20520;-45
2022/09/14 06:46:20;;;;;;;;;;;16.10;99.90;;;;;;5055735;28;20037;-45
2022/09/14 06:48:49;;;;;;;4.97;2.13;;;16.10;99.90;;;;;;5053750;28;20339;-45
2022/09/14 06:51:21;;;;;;;8.23;2.58;;;16.10;99.90;;;;;;5054584;28;20073;-47
2022/09/14 06:53:49;;;;;;;3.90;2.40;;;16.10;99.90;;;;;;5058677;28;20069;-45
2022/09/14 06:56:16;;;;;;;8.40;2.78;;;16.10;99.90;;;;;;5054253;28;20041;-45
2022/09/14 06:58:44;;;;;;;9.93;2.28;;;16.10;99.90;;;;;;5074060;28;20128;-45
2022/09/14 07:01:15;;;;;;;6.40;2.60;;;16.10;99.90;;;;;;5063688;28;20087;-45
2022/09/14 07:03:42;;;;;;;3.67;2.70;;;16.10;99.90;;;;;;5053831;28;20128;-45
2022/09/14 07:06:19;;;;;;;5.70;2.47;;;16.10;99.90;;;;;;5053452;28;20059;-45
2022/09/14 07:08:47;;;;;;;3.90;2.42;;;16.20;99.90;;;;;;5056511;28;20133;-45
2022/09/14 07:11:16;;;;;;;5.60;2.50;;;16.30;99.90;;;;;;5046048;28;20094;-45
2022/09/14 07:13:44;;;;;;;3.58;2.53;;;16.30;99.90;;;;;;5053532;28;20087;-45
2022/09/14 07:16:11;;;;;;;6.70;2.65;;;16.40;99.90;;;;;;5053764;28;20076;-45
2022/09/14 07:18:38;;;;;;;6.47;3.42;;;16.50;99.90;;;;;;5054188;28;20041;-45
2022/09/14 07:21:12;;;;;;;6.18;2.45;;;16.60;99.90;;;;;;5052286;28;20029;-45
2022/09/14 07:23:42;;;;;;;4.35;2.67;;;16.70;99.90;;;;;;5052569;28;20120;-45
2022/09/14 07:26:12;;;;;;;7.10;2.75;;;16.80;99.90;;;;;;5036066;28;20115;-45
2022/09/14 07:28:40;;;;;;;5.10;2.55;;;16.90;99.90;;;;;;5055179;28;20079;-45
2022/09/14 07:31:18;;;;;;;9.13;2.63;;;17.00;99.90;;;;;;5053704;28;20083;-46
2022/09/14 07:33:45;;;;;;;10.02;2.72;;;17.10;99.90;;;;;;5053129;28;20048;-45
2022/09/14 07:36:13;;;;;;;3.95;2.15;;;17.20;99.90;;;;;;5064650;28;20120;-45
2022/09/14 07:38:40;;;;;;;7.03;2.72;;;17.40;99.90;;;;;;5066283;28;20060;-45
2022/09/14 07:41:28;;;;;;;5.75;2.80;;;17.60;99.90;;;;;;5065415;28;20049;-45
2022/09/14 07:43:59;;;;;;;8.75;2.75;;;17.70;99.90;;;;;;5052967;28;20116;-45
2022/09/14 07:46:32;;;;;;;5.18;2.05;;;17.90;99.90;;;;;;5053256;28;20041;-47
2022/09/14 07:49:00;;;;;;;6.82;2.10;;;18.00;99.90;;;;;;5057864;28;20107;-45
2022/09/14 07:51:29;;;;;;;5.65;2.22;;;18.20;99.90;;;;;;5052792;28;20041;-45
2022/09/14 07:53:57;;;;;;;5.32;2.20;;;18.30;99.90;;;;;;5053082;28;20120;-45
2022/09/14 07:56:24;;;;;;;5.40;1.88;;;18.50;99.90;;;;;;5052296;28;20533;-45
2022/09/14 07:58:52;;;;;;;;;;;18.60;99.90;;;;;;5053122;28;20091;-45
2022/09/14 08:01:24;;;;;;;5.22;1.90;;;18.70;99.90;;;;;;5059652;28;19924;-45
2022/09/14 08:03:51;;;;;;;9.38;2.20;;;18.70;99.90;;;;;;5052634;28;20217;-45
2022/09/14 08:06:21;;;;;;;7.05;2.20;;;18.60;99.90;;;;;;5052055;28;20053;-45
2022/09/14 08:08:50;;;;;;;2.10;1.60;;;18.60;99.90;;;;;;5071397;22;20396;-47
2022/09/14 08:11:24;;;;;;;2.65;1.80;;;18.80;99.90;;;;;;5050547;28;20056;-47
2022/09/14 08:13:53;;;;;;;4.78;1.70;;;19.10;99.90;;;;;;5037964;28;20515;-47
2022/09/14 08:16:21;;;;;;;5.78;1.95;;;19.30;99.90;;;;;;5034595;28;20065;-49
2022/09/14 08:18:53;;;;;;;3.78;1.80;;;19.20;99.90;;;;;;5051965;28;20048;-47
2022/09/14 08:21:21;;;;;;;4.35;1.90;;;19.20;99.90;;;;;;5051912;28;20393;-47
2022/09/14 08:23:48;;;;;;;5.68;2.25;;;19.30;99.90;;;;;;5052445;28;20037;-47
2022/09/14 08:26:17;;;;;;;4.13;1.80;;;19.30;99.90;;;;;;5040719;28;20053;-51
2022/09/14 08:28:45;;;;;;;5.65;1.70;;;19.30;99.90;;;;;;5052959;28;20048;-47
2022/09/14 08:31:20;;;;;;;5.53;2.33;;;19.50;99.90;;;;;;5052511;28;20056;-47
2022/09/14 08:33:51;;;;;;;7.72;2.72;;;19.40;99.90;;;;;;5042825;28;20421;-46
2022/09/14 08:36:19;;;;;;;7.88;2.47;;;19.20;99.90;;;;;;5048980;28;20045;-47
2022/09/14 08:38:46;;;;;;;6.95;2.30;;;19.30;99.90;;;;;;5052277;28;20143;-47
2022/09/14 08:41:34;;;;;;;5.32;2.08;;;19.30;99.90;;;;;;5052698;28;20055;-47
2022/09/14 08:44:12;;;;;;;5.23;2.47;;;19.30;99.90;;;;;;5032208;28;20060;-49
2022/09/14 08:46:47;;;;;;;4.63;2.10;;;19.40;99.90;;;;;;5031948;28;20280;-47
2022/09/14 08:49:24;;;;;;;7.90;2.40;;;19.40;99.90;;;;;;5032227;28;20057;-48
2022/09/14 08:51:51;;;;;;;5.45;2.33;;;19.50;99.90;;;;;;5032302;28;20050;-47
2022/09/14 08:54:18;;;;;;;4.57;1.88;;;19.70;99.90;;;;;;5029684;28;20042;-48
2022/09/14 08:56:52;;;;;;;2.65;2.35;;;19.90;99.90;;;;;;5031990;28;20421;-47
2022/09/14 08:59:32;;;;;;;4.25;2.45;;;20.20;99.90;;;;;;5030230;28;20050;-46
2022/09/14 09:01:59;;;;;;;4.47;2.17;;;20.40;99.90;;;;;;5032259;28;20060;-47
2022/09/14 09:04:37;;;;;;;5.13;2.42;;;20.50;99.90;;;;;;5030610;28;20045;-47
2022/09/14 09:07:07;;;;;;;6.28;2.22;;;20.40;99.90;;;;;;5031721;28;20058;-48
2022/09/14 09:09:51;;;;;;;7.20;2.60;;;20.30;99.90;;;;;;5030844;28;20045;-47
2022/09/14 09:12:41;;;;;;;6.60;2.47;;;20.20;99.90;;;;;;5031659;28;20052;-48
2022/09/14 09:15:22;;;;;;;7.07;2.65;;;20.00;99.90;;;;;;5031921;28;20055;-47
2022/09/14 09:17:54;;;;;;;7.18;2.35;;;19.90;99.90;;;;;;5030627;28;20048;-47
2022/09/14 09:20:31;;;;;;;4.90;2.33;;;20.10;99.90;;;;;;5031805;28;20053;-47
2022/09/14 09:23:15;;;;;;;7.33;2.40;;;20.40;99.90;;;;;;5030687;28;20421;-47
2022/09/14 09:25:59;;;;;;;5.53;2.53;;;20.70;99.90;;;;;;5028776;28;20401;-47
2022/09/14 09:28:27;;;;;;;4.85;2.40;;;20.90;99.90;;;;;;5031672;28;20059;-47
2022/09/14 09:30:58;;;;;;;3.40;2.47;;;21.00;99.90;;;;;;5030951;28;20050;-47
2022/09/14 09:33:37;;;;;;;6.97;2.47;;;21.10;99.90;;;;;;5008912;28;20041;-47
2022/09/14 09:36:14;;;;;;;4.00;2.47;;;21.30;99.90;;;;;;5013324;28;20054;-48
2022/09/14 09:38:41;;;;;;;4.97;2.95;;;21.50;99.90;;;;;;5013288;28;20045;-47
2022/09/14 09:41:16;;;;;;;2.58;2.15;;;21.70;99.90;;;;;;5030346;28;20501;-48
2022/09/14 09:44:05;;;;;;;6.93;2.47;;;21.70;99.90;;;;;;5031525;28;20464;-48
2022/09/14 09:46:34;;;;;;;5.03;1.83;;;21.80;99.90;;;;;;5051335;28;20056;-47
2022/09/14 09:49:04;;;;;;;8.60;3.03;;;21.80;99.90;;;;;;5037682;28;20043;-47
2022/09/14 09:51:32;;;;;;;7.90;2.67;;;22.00;99.90;;;;;;5031414;28;20116;-47
2022/09/14 09:54:23;;;;;;;2.53;2.10;;;21.80;99.90;;;;;;5029770;28;20073;-47
2022/09/14 09:56:57;;;;;;;3.78;2.45;;;22.10;99.90;;;;;;5030033;28;20037;-48
2022/09/14 09:59:39;;;;;;;5.63;2.33;;;22.30;99.90;;;;;;5030983;28;20084;-47
2022/09/14 10:02:29;;;;;;;3.47;2.42;;;22.60;99.90;;;;;;5030606;28;20568;-48
2022/09/14 10:05:09;;;;;;;5.75;2.40;;;22.90;99.90;;;;;;5030324;28;20045;-48
2022/09/14 10:07:36;;;;;;;7.57;2.85;;;23.10;99.90;;;;;;5022507;28;20376;-47
2022/09/14 10:10:08;;;;;;;7.32;2.10;;;23.20;99.90;;;;;;5030276;28;20069;-48
2022/09/14 10:12:37;;;;;;;4.05;2.38;;;23.20;99.90;;;;;;5030978;28;20549;-47
2022/09/14 10:15:06;;;;;;;3.70;2.08;;;23.20;99.90;;;;;;5030775;28;20076;-47
2022/09/14 10:17:33;;;;;;;5.70;2.40;;;23.10;99.90;;;;;;5029202;28;20505;-47
2022/09/14 10:20:00;;;;;;;10.43;2.83;;;23.20;99.90;;;;;;5013107;28;20076;-47
2022/09/14 10:22:28;;;;;;;6.25;2.60;;;23.30;99.90;;;;;;5030812;28;20077;-47
2022/09/14 10:25:13;;;;;;;6.75;2.17;;;23.40;99.90;;;;;;5028430;28;20124;-47
2022/09/14 10:27:55;;;;;;;12.18;2.65;;;23.30;99.90;;;;;;5037215;28;20033;-46
2022/09/14 10:30:36;;;;;;;4.15;2.47;;;23.20;99.90;;;;;;5050050;28;20084;-48
2022/09/14 10:33:05;;;;;;;4.38;2.53;;;23.10;99.90;;;;;;5046222;28;20042;-48
2022/09/14 10:35:38;;;;;;;5.10;2.75;;;23.00;99.90;;;;;;5017070;28;20477;-47
2022/09/14 10:38:16;;;;;;;4.38;2.95;;;23.00;99.90;;;;;;5030840;28;20069;-47
2022/09/14 10:40:46;;;;;;;6.75;3.00;;;23.10;99.90;;;;;;5030675;28;20069;-47
2022/09/14 10:43:32;;;;;;;5.70;2.80;;;23.20;99.90;;;;;;5030616;28;20052;-47
2022/09/14 10:46:03;;;;;;;6.47;2.70;;;23.50;99.90;;;;;;5030625;28;20080;-47
2022/09/14 10:48:48;;;;;;;6.15;3.58;;;23.60;99.90;;;;;;5029960;28;20061;-46
2022/09/14 10:51:24;;;;;;;7.00;2.97;;;23.80;99.90;;;;;;5030909;28;20045;-47
2022/09/14 10:54:01;;;;;;;4.72;2.58;;;23.90;99.90;;;;;;5029795;28;20099;-47
2022/09/14 10:56:53;;;;;;;4.38;2.63;;;23.70;99.90;;;;;;5050566;28;20106;-47
2022/09/14 10:59:36;;;;;;;5.60;2.50;;;23.90;99.90;;;;;;5050401;28;20045;-48
2022/09/14 11:02:31;;;;;;;2.60;2.20;;;24.30;99.90;;;;;;5026494;28;20121;-47
2022/09/14 11:05:14;;;;;;;4.93;2.60;;;24.50;99.90;;;;;;5029327;28;20561;-47
2022/09/14 11:07:59;;;;;;;4.72;2.42;;;24.70;99.90;;;;;;5030845;28;20041;-47
2022/09/14 11:10:52;;;;;;;5.32;2.67;;;24.80;99.90;;;;;;5032301;28;20077;-47
2022/09/14 11:13:44;;;;;;;4.88;2.40;;;25.00;99.90;;;;;;5030332;28;20137;-47
2022/09/14 11:16:46;;;;;;;5.43;2.67;;;25.30;99.90;;;;;;5046239;28;20629;-47
2022/09/14 11:19:34;;;;;;;3.90;2.80;;;25.50;99.90;;;;;;5033611;28;20088;-47
2022/09/14 11:22:19;;;;;;;3.72;2.45;;;25.70;99.90;;;;;;5033140;28;20069;-47
2022/09/14 11:25:12;;;;;;;4.95;2.35;;;25.80;99.90;;;;;;5031623;28;20049;-47
2022/09/14 11:27:44;;;;;;;4.70;2.80;;;25.80;99.90;;;;;;5034270;28;20117;-48
2022/09/14 11:30:18;;;;;;;3.20;2.47;;;25.70;99.90;;;;;;5033532;28;20068;-47
2022/09/14 11:32:54;;;;;;;3.95;2.70;;;25.50;99.90;;;;;;5031317;28;20045;-47
2022/09/14 11:35:27;;;;;;;5.82;2.92;;;25.40;99.90;;;;;;5033337;28;20461;-47
2022/09/14 11:37:59;;;;;;;3.20;2.72;;;25.30;99.90;;;;;;5032153;28;20045;-48
2022/09/14 11:40:40;;;;;;;4.15;2.58;;;25.40;99.90;;;;;;5033470;28;20383;-47
2022/09/14 11:43:15;;;;;;;4.47;2.92;;;25.50;99.90;;;;;;5032412;28;20510;-48
2022/09/14 11:46:07;;;;;;;5.60;3.08;;;25.70;99.90;;;;;;5033218;28;20081;-47
2022/09/14 11:48:43;;;;;;;4.15;2.72;;;26.00;99.90;;;;;;5033332;28;20462;-48
2022/09/14 11:51:25;;;;;;;3.50;2.70;;;25.90;99.90;;;;;;5031934;28;20053;-47
2022/09/14 11:53:51;;;;;;;3.90;2.97;;;26.10;99.90;;;;;;5032690;28;20069;-47
2022/09/14 11:56:26;;;;;;;6.93;3.00;;;26.10;99.90;;;;;;5013919;28;20458;-49
2022/09/14 11:58:56;;;;;;;7.68;3.33;;;26.10;99.90;;;;;;5033141;28;20128;-47
2022/09/14 12:01:26;;;;;;;6.88;2.80;;;25.90;99.90;;;;;;5031237;28;20084;-48
2022/09/14 12:03:58;;;;;;;4.65;3.05;;;26.00;99.90;;;;;;5032789;28;20140;-48
2022/09/14 12:06:34;;;;;;;8.32;3.17;;;25.80;99.90;;;;;;5014741;28;20137;-48
2022/09/14 12:09:16;;;;;;;4.88;3.28;;;25.60;99.90;;;;;;5032859;28;20042;-49
2022/09/14 12:11:44;;;;;;;5.45;3.30;;;25.50;99.90;;;;;;5033305;28;20041;-48
2022/09/14 12:14:22;;;;;;;6.43;3.55;;;25.50;99.90;;;;;;5030464;28;20077;-49
2022/09/14 12:17:30;;;;;;;6.47;3.10;;;25.50;99.90;;;;;;5041154;28;20485;-51
2022/09/14 12:20:34;;;;;;;7.07;3.10;;;25.60;99.90;;;;;;5050796;28;20048;-49
2022/09/14 12:23:24;;;;;;;4.20;2.97;;;25.60;99.90;;;;;;5046830;28;20073;-49
2022/09/14 12:26:13;;;;;;;4.07;2.47;;;25.60;99.90;;;;;;5051306;28;20072;-51
2022/09/14 12:28:47;;;;;;;3.92;2.83;;;25.60;99.90;;;;;;5025716;28;20148;-50
2022/09/14 12:31:52;;;;;;;4.10;3.10;;;25.80;99.90;;;;;;5031577;28;20096;-48
2022/09/14 12:34:25;;;;;;;4.63;2.80;;;25.90;99.90;;;;;;4951851;28;20138;-49
2022/09/14 12:36:52;;;;;;;3.88;3.15;;;26.10;99.90;;;;;;4951154;29;20204;-48
2022/09/14 12:39:22;;;;;;;6.10;3.25;;;26.20;99.90;;;;;;4993496;28;20140;-49
2022/09/14 12:41:48;;;;;;;3.92;3.13;;;26.10;99.90;;;;;;5032180;28;20068;-51
2022/09/14 12:44:38;;;;;;;9.65;3.63;;;26.10;99.90;;;;;;5031760;28;20490;-49
2022/09/14 12:47:23;;;;;;;3.95;2.78;;;26.10;99.90;;;;;;5044671;28;20095;-48
2022/09/14 12:49:52;;;;;;;10.40;3.42;;;26.10;99.90;;;;;;5029987;28;20077;-48
2022/09/14 12:52:39;;;;;;;5.32;3.10;;;26.10;99.90;;;;;;5051897;28;20119;-47
2022/09/14 12:55:38;;;;;;;5.20;3.30;;;26.20;99.90;;;;;;5034750;28;20066;-48
2022/09/14 12:58:22;;;;;;;4.50;2.88;;;26.20;99.90;;;;;;5031723;28;20084;-49
2022/09/14 13:01:14;;;;;;;5.57;2.95;;;26.30;99.90;;;;;;5030843;28;20536;-50
2022/09/14 13:03:47;;;;;;;4.47;2.90;;;26.30;99.90;;;;;;5031144;28;20513;-51
2022/09/14 13:06:14;;;;;;;12.63;3.60;;;26.30;99.90;;;;;;5031724;28;20474;-49
2022/09/14 13:09:14;;;;;;;5.47;3.47;;;26.20;99.90;;;;;;5029718;28;20131;-51
2022/09/14 13:11:41;;;;;;;7.65;2.83;;;26.10;99.90;;;;;;5023938;28;20122;-49
2022/09/14 13:14:18;;;;;;;4.63;3.25;;;26.00;99.90;;;;;;5031256;28;20565;-47
2022/09/14 13:16:48;;;;;;;3.53;3.10;;;25.90;99.90;;;;;;5030634;28;20108;-47
2022/09/14 13:19:29;;;;;;;5.72;3.00;;;25.70;99.90;;;;;;5031600;28;20072;-47